createdAt,value
2023-02-01T00:00:31.780Z,4.10
2023-02-01T00:02:58.531Z,4.28
2023-02-01T00:05:25.397Z,3.97
2023-02-01T00:07:52.119Z,3.90
2023-02-01T00:10:19.246Z,3.63
2023-02-01T00:12:46.068Z,3.38
2023-02-01T00:15:12.898Z,3.38
2023-02-01T00:17:39.730Z,3.53
2023-02-01T00:20:07.072Z,3.35
2023-02-01T00:22:33.880Z,2.88
2023-02-01T00:25:00.624Z,3.00
2023-02-01T00:27:27.447Z,2.42
2023-02-01T00:29:56.382Z,2.80
2023-02-01T00:32:23.235Z,2.50
2023-02-01T00:34:49.924Z,2.60
2023-02-01T00:37:16.684Z,2.88
2023-02-01T00:39:43.389Z,2.92
2023-02-01T00:42:10.938Z,2.88
2023-02-01T00:44:37.630Z,2.75
2023-02-01T00:47:04.352Z,2.60
2023-02-01T00:49:31.087Z,3.10
2023-02-01T00:51:57.963Z,2.80
2023-02-01T00:54:24.758Z,2.55
2023-02-01T00:56:51.483Z,2.80
2023-02-01T00:59:18.188Z,3.08
2023-02-01T01:01:44.920Z,2.53
2023-02-01T01:04:11.723Z,2.58
2023-02-01T01:06:38.487Z,3.03
2023-02-01T01:09:07.938Z,2.85
2023-02-01T01:11:37.452Z,2.65
2023-02-01T01:14:06.601Z,2.88
2023-02-01T01:16:33.895Z,2.90
2023-02-01T01:19:01.238Z,3.00
2023-02-01T01:21:28.124Z,2.90
2023-02-01T01:23:55.199Z,2.80
2023-02-01T01:26:24.687Z,2.90
2023-02-01T01:28:52.086Z,2.45
2023-02-01T01:31:20.419Z,2.53
2023-02-01T01:33:52.420Z,2.53
2023-02-01T01:36:19.786Z,2.53
2023-02-01T01:38:46.912Z,2.40
2023-02-01T01:41:16.642Z,2.60
2023-02-01T01:43:52.216Z,2.20
2023-02-01T01:46:30.895Z,2.20
2023-02-01T01:49:11.656Z,2.40
2023-02-01T01:51:52.481Z,2.22
2023-02-01T01:54:25.438Z,2.20
2023-02-01T01:56:55.199Z,1.90
2023-02-01T01:59:23.423Z,1.90
2023-02-01T02:01:50.330Z,1.83
2023-02-01T02:04:17.322Z,1.98
2023-02-01T02:06:49.116Z,1.80
2023-02-01T02:09:16.467Z,1.98
2023-02-01T02:11:43.358Z,1.90
2023-02-01T02:14:13.241Z,2.20
2023-02-01T02:16:47.350Z,2.20
2023-02-01T02:19:45.116Z,2.10
2023-02-01T02:22:30.387Z,2.10
2023-02-01T02:25:00.095Z,2.15
2023-02-01T02:28:06.246Z,2.00
2023-02-01T02:30:57.965Z,2.00
2023-02-01T02:33:44.380Z,2.30
2023-02-01T02:36:39.857Z,2.30
2023-02-01T02:42:30.672Z,1.75
2023-02-01T02:45:33.297Z,2.25
2023-02-01T02:48:10.134Z,1.70
2023-02-01T02:50:58.739Z,2.30
2023-02-01T02:53:49.090Z,2.25
2023-02-01T02:56:35.567Z,2.00
2023-02-01T02:59:21.838Z,1.98
2023-02-01T03:02:08.836Z,1.70
2023-02-01T03:04:35.523Z,1.85
2023-02-01T03:07:35.762Z,1.63
2023-02-01T03:10:09.834Z,1.77
2023-02-01T03:12:56.999Z,1.63
2023-02-01T03:16:02.028Z,1.70
2023-02-01T03:18:34.667Z,1.70
2023-02-01T03:21:05.465Z,1.77
2023-02-01T03:23:35.146Z,1.70
2023-02-01T03:26:03.114Z,2.05
2023-02-01T03:28:31.096Z,1.80
2023-02-01T03:30:58.202Z,1.90
2023-02-01T03:33:26.484Z,1.80
2023-02-01T03:36:13.367Z,1.77
2023-02-01T03:38:50.682Z,2.10
2023-02-01T03:41:37.122Z,2.15
2023-02-01T03:44:24.258Z,1.80
2023-02-01T03:47:10.584Z,1.70
2023-02-01T03:49:43.126Z,1.88
2023-02-01T03:52:14.832Z,2.10
2023-02-01T03:54:41.967Z,2.00
2023-02-01T03:57:13.073Z,1.70
2023-02-01T03:59:41.937Z,1.92
2023-02-01T04:02:09.410Z,1.80
2023-02-01T04:04:36.248Z,1.70
2023-02-01T04:07:03.375Z,1.60
2023-02-01T04:09:30.256Z,1.83
2023-02-01T04:11:57.056Z,1.35
2023-02-01T04:14:23.767Z,1.70
2023-02-01T04:16:50.562Z,1.80
2023-02-01T04:19:17.230Z,1.70
2023-02-01T04:21:43.908Z,1.65
2023-02-01T04:24:11.632Z,1.45
2023-02-01T04:26:38.520Z,1.95
2023-02-01T04:29:05.299Z,1.90
2023-02-01T04:31:32.247Z,1.75
2023-02-01T04:33:59.010Z,1.88
2023-02-01T04:36:25.803Z,2.03
2023-02-01T04:38:52.956Z,2.20
2023-02-01T04:41:20.650Z,2.05
2023-02-01T04:43:50.885Z,2.10
2023-02-01T04:46:17.703Z,2.42
2023-02-01T04:48:44.515Z,2.42
2023-02-01T04:51:11.540Z,2.38
2023-02-01T04:53:38.395Z,2.33
2023-02-01T04:56:05.542Z,2.33
2023-02-01T04:58:32.283Z,2.05
2023-02-01T05:00:59.028Z,2.00
2023-02-01T05:03:25.748Z,2.00
2023-02-01T05:05:54.572Z,2.00
2023-02-01T05:08:23.448Z,2.10
2023-02-01T05:10:50.415Z,2.45
2023-02-01T05:13:35.891Z,2.42
2023-02-01T05:16:02.775Z,2.05
2023-02-01T05:18:29.622Z,2.50
2023-02-01T05:20:56.431Z,2.47
2023-02-01T05:23:23.169Z,2.55
2023-02-01T05:25:49.889Z,2.38
2023-02-01T05:28:16.661Z,2.25
2023-02-01T05:30:43.431Z,2.30
2023-02-01T05:33:10.178Z,2.63
2023-02-01T05:35:36.934Z,2.95
2023-02-01T05:38:03.605Z,3.05
2023-02-01T05:40:30.301Z,3.58
2023-02-01T05:42:57.014Z,3.58
2023-02-01T05:45:23.692Z,3.67
2023-02-01T05:47:50.357Z,3.47
2023-02-01T05:50:17.817Z,4.00
2023-02-01T05:52:44.714Z,5.32
2023-02-01T05:55:11.520Z,5.70
2023-02-01T05:57:38.184Z,5.47
2023-02-01T06:00:05.426Z,6.25
2023-02-01T06:02:32.177Z,6.47
2023-02-01T06:04:58.986Z,7.20
2023-02-01T06:07:27.135Z,6.90
2023-02-01T06:09:54.796Z,7.50
2023-02-01T06:12:21.467Z,6.88
2023-02-01T06:14:48.172Z,6.88
2023-02-01T06:17:14.879Z,8.23
2023-02-01T06:19:41.619Z,6.75
2023-02-01T06:22:08.346Z,6.18
2023-02-01T06:24:35.178Z,6.20
2023-02-01T06:27:01.944Z,6.25
2023-02-01T06:29:28.745Z,5.90
2023-02-01T06:31:55.681Z,5.75
2023-02-01T06:34:23.989Z,6.07
2023-02-01T06:36:50.995Z,5.78
2023-02-01T06:39:17.885Z,5.68
2023-02-01T06:41:50.244Z,5.50
2023-02-01T06:44:17.814Z,5.80
2023-02-01T06:46:44.591Z,6.13
2023-02-01T06:49:11.391Z,5.95
2023-02-01T06:51:38.150Z,5.50
2023-02-01T06:54:05.104Z,5.05
2023-02-01T06:56:32.431Z,5.95
2023-02-01T06:58:59.084Z,4.95
2023-02-01T07:01:26.043Z,5.07
2023-02-01T07:03:52.756Z,5.22
2023-02-01T07:06:19.923Z,5.18
2023-02-01T07:08:46.705Z,4.93
2023-02-01T07:11:15.114Z,4.93
2023-02-01T07:13:41.817Z,5.13
2023-02-01T07:16:12.425Z,4.82
2023-02-01T07:18:39.470Z,5.70
2023-02-01T07:21:06.512Z,5.10
2023-02-01T07:23:33.357Z,6.20
2023-02-01T07:26:03.116Z,5.65
2023-02-01T07:28:31.531Z,4.82
2023-02-01T07:31:05.980Z,5.22
2023-02-01T07:33:33.423Z,6.47
2023-02-01T07:36:02.793Z,5.15
2023-02-01T07:38:29.727Z,4.80
2023-02-01T07:41:05.394Z,4.70
2023-02-01T07:43:34.021Z,4.88
2023-02-01T07:46:00.912Z,5.35
2023-02-01T07:48:28.110Z,5.18
2023-02-01T07:51:03.603Z,4.50
2023-02-01T07:53:31.284Z,4.90
2023-02-01T07:55:58.474Z,4.65
2023-02-01T07:58:26.374Z,4.50
2023-02-01T08:01:11.813Z,4.78
2023-02-01T08:03:38.703Z,4.35
2023-02-01T08:06:06.023Z,4.22
2023-02-01T08:08:32.943Z,3.85
2023-02-01T08:11:01.296Z,4.45
2023-02-01T08:13:28.290Z,4.65
2023-02-01T08:16:02.493Z,4.15
2023-02-01T08:18:29.275Z,4.15
2023-02-01T08:20:56.336Z,4.50
2023-02-01T08:23:23.243Z,3.65
2023-02-01T08:25:50.030Z,4.20
2023-02-01T08:28:16.902Z,4.68
2023-02-01T08:30:43.742Z,4.10
2023-02-01T08:33:10.684Z,4.53
2023-02-01T08:35:43.731Z,3.92
2023-02-01T08:38:10.923Z,4.30
2023-02-01T08:40:37.633Z,4.30
2023-02-01T08:43:04.457Z,3.88
2023-02-01T08:45:31.320Z,4.40
2023-02-01T08:47:58.290Z,3.83
2023-02-01T08:50:26.672Z,4.43
2023-02-01T08:52:54.001Z,4.35
2023-02-01T08:55:20.985Z,3.88
2023-02-01T08:57:47.964Z,4.80
2023-02-01T09:00:17.250Z,4.13
2023-02-01T09:02:44.667Z,4.57
2023-02-01T09:05:11.961Z,4.03
2023-02-01T09:07:38.956Z,3.72
2023-02-01T09:10:06.288Z,3.67
2023-02-01T09:12:34.858Z,3.13
2023-02-01T09:15:01.835Z,4.50
2023-02-01T09:17:30.531Z,3.95
2023-02-01T09:19:57.584Z,3.17
2023-02-01T09:22:24.667Z,3.83
2023-02-01T09:24:52.444Z,3.42
2023-02-01T09:27:20.668Z,2.97
2023-02-01T09:29:53.167Z,3.20
2023-02-01T09:32:21.364Z,2.90
2023-02-01T09:34:48.324Z,3.70
2023-02-01T09:37:15.083Z,3.60
2023-02-01T09:39:43.670Z,3.92
2023-02-01T09:42:51.890Z,3.25
2023-02-01T09:45:42.019Z,3.85
2023-02-01T09:48:23.900Z,3.30
2023-02-01T09:50:56.419Z,3.78
2023-02-01T09:53:43.793Z,3.35
2023-02-01T09:56:15.520Z,3.08
2023-02-01T09:58:43.332Z,3.10
2023-02-01T10:01:22.678Z,3.05
2023-02-01T10:03:50.514Z,2.85
2023-02-01T10:06:49.631Z,3.65
2023-02-01T10:09:45.667Z,3.05
2023-02-01T10:12:34.598Z,2.97
2023-02-01T10:15:07.957Z,3.83
2023-02-01T10:17:50.386Z,3.35
2023-02-01T10:20:29.013Z,2.50
2023-02-01T10:23:23.202Z,2.92
2023-02-01T10:25:55.848Z,3.28
2023-02-01T10:28:25.041Z,2.95
2023-02-01T10:30:57.768Z,2.88
2023-02-01T10:33:33.652Z,3.17
2023-02-01T10:36:17.959Z,3.05
2023-02-01T10:38:45.218Z,2.90
2023-02-01T10:41:18.118Z,2.63
2023-02-01T10:43:46.277Z,3.15
2023-02-01T10:46:13.189Z,2.95
2023-02-01T10:48:41.866Z,2.85
2023-02-01T10:51:15.987Z,2.58
2023-02-01T10:53:53.915Z,3.08
2023-02-01T10:56:28.473Z,3.22
2023-02-01T10:59:16.469Z,2.60
2023-02-01T11:01:48.158Z,3.15
2023-02-01T11:04:22.162Z,3.03
2023-02-01T11:07:10.503Z,3.07
2023-02-01T11:09:41.001Z,2.60
2023-02-01T11:12:27.419Z,2.83
2023-02-01T11:15:18.662Z,2.80
2023-02-01T11:17:47.735Z,3.20
2023-02-01T11:20:20.863Z,3.05
2023-02-01T11:22:49.852Z,3.17
2023-02-01T11:25:18.558Z,2.95
2023-02-01T11:27:54.520Z,2.33
2023-02-01T11:30:37.372Z,2.97
2023-02-01T11:33:06.864Z,2.60
2023-02-01T11:35:38.541Z,2.78
2023-02-01T11:38:14.009Z,2.88
2023-02-01T11:40:40.717Z,3.15
2023-02-01T11:43:18.829Z,2.42
2023-02-01T11:45:59.405Z,2.63
2023-02-01T11:48:31.655Z,1.98
2023-02-01T11:51:24.182Z,2.67
2023-02-01T11:53:56.701Z,2.53
2023-02-01T11:56:23.396Z,2.67
2023-02-01T11:59:03.031Z,2.75
2023-02-01T12:02:00.957Z,3.05
2023-02-01T12:04:44.998Z,2.83
2023-02-01T12:07:11.628Z,3.00
2023-02-01T12:09:38.384Z,2.72
2023-02-01T12:12:12.390Z,2.47
2023-02-01T12:15:16.614Z,2.47
2023-02-01T12:18:01.966Z,3.13
2023-02-01T12:21:10.007Z,2.75
2023-02-01T12:23:45.664Z,3.00
2023-02-01T12:26:23.599Z,3.00
2023-02-01T12:29:18.938Z,4.10
2023-02-01T12:32:05.943Z,3.30
2023-02-01T12:34:39.313Z,2.55
2023-02-01T12:37:45.296Z,3.58
2023-02-01T12:40:29.872Z,2.63
2023-02-01T12:43:03.912Z,3.67
2023-02-01T12:45:59.997Z,3.00
2023-02-01T12:48:32.653Z,3.05
2023-02-01T12:51:14.586Z,3.17
2023-02-01T12:54:19.547Z,3.30
2023-02-01T12:56:50.631Z,2.90
2023-02-01T12:59:27.556Z,2.78
2023-02-01T13:02:05.959Z,2.30
2023-02-01T13:05:18.839Z,2.80
2023-02-01T13:08:04.699Z,2.50
2023-02-01T13:10:47.879Z,3.00
2023-02-01T13:13:40.117Z,3.13
2023-02-01T13:16:30.080Z,3.20
2023-02-01T13:19:07.670Z,3.60
2023-02-01T13:21:40.385Z,3.47
2023-02-01T13:24:24.947Z,3.15
2023-02-01T13:26:55.139Z,3.75
2023-02-01T13:29:23.939Z,3.40
2023-02-01T13:32:18.282Z,3.42
2023-02-01T13:35:17.280Z,3.72
2023-02-01T13:37:55.931Z,3.55
2023-02-01T13:40:39.542Z,3.05
2023-02-01T13:43:16.589Z,2.47
2023-02-01T13:45:50.968Z,3.13
2023-02-01T13:48:41.037Z,3.05
2023-02-01T13:51:08.233Z,2.95
2023-02-01T13:53:38.054Z,3.20
2023-02-01T13:56:21.336Z,2.72
2023-02-01T13:58:49.278Z,3.75
2023-02-01T14:01:22.214Z,2.95
2023-02-01T14:03:56.653Z,3.38
2023-02-01T14:06:30.940Z,3.15
2023-02-01T14:09:14.874Z,3.38
2023-02-01T14:11:45.369Z,3.33
2023-02-01T14:14:18.105Z,3.05
2023-02-01T14:17:05.635Z,2.92
2023-02-01T14:19:34.353Z,3.22
2023-02-01T14:22:22.291Z,3.90
2023-02-01T14:24:56.184Z,3.58
2023-02-01T14:27:25.853Z,3.27
2023-02-01T14:29:59.175Z,3.28
2023-02-01T14:32:31.919Z,2.60
2023-02-01T14:35:01.627Z,2.85
2023-02-01T14:37:31.611Z,3.50
2023-02-01T14:40:15.184Z,2.90
2023-02-01T14:42:46.943Z,3.35
2023-02-01T14:45:20.591Z,2.90
2023-02-01T14:47:48.751Z,2.83
2023-02-01T14:50:31.749Z,3.17
2023-02-01T14:53:11.054Z,2.85
2023-02-01T14:55:59.768Z,3.15
2023-02-01T14:58:35.644Z,2.65
2023-02-01T15:01:15.071Z,3.63
2023-02-01T15:04:07.878Z,3.30
2023-02-01T15:06:41.657Z,2.60
2023-02-01T15:09:17.205Z,2.95
2023-02-01T15:11:58.930Z,3.25
2023-02-01T15:14:26.852Z,2.75
2023-02-01T15:16:56.252Z,2.55
2023-02-01T15:19:25.285Z,2.67
2023-02-01T15:21:54.867Z,2.70
2023-02-01T15:24:30.199Z,2.22
2023-02-01T15:27:02.887Z,2.38
2023-02-01T15:29:33.330Z,2.60
2023-02-01T15:32:01.166Z,3.05
2023-02-01T15:34:48.004Z,2.80
2023-02-01T15:37:17.136Z,2.33
2023-02-01T15:40:06.919Z,2.97
2023-02-01T15:42:33.639Z,2.72
2023-02-01T15:45:00.414Z,3.30
2023-02-01T15:47:29.775Z,2.75
2023-02-01T15:49:58.896Z,3.00
2023-02-01T15:52:38.083Z,3.00
2023-02-01T15:55:19.033Z,2.50
2023-02-01T15:57:47.131Z,3.00
2023-02-01T16:00:26.125Z,2.72
2023-02-01T16:02:56.416Z,2.55
2023-02-01T16:05:44.229Z,3.05
2023-02-01T16:08:17.561Z,2.75
2023-02-01T16:10:46.730Z,2.50
2023-02-01T16:13:15.069Z,2.70
2023-02-01T16:15:41.801Z,2.63
2023-02-01T16:18:09.309Z,3.25
2023-02-01T16:20:37.799Z,3.15
2023-02-01T16:23:05.212Z,2.45
2023-02-01T16:25:32.540Z,3.05
2023-02-01T16:27:59.562Z,3.15
2023-02-01T16:30:26.265Z,2.47
2023-02-01T16:32:56.029Z,2.67
2023-02-01T16:35:31.466Z,3.05
2023-02-01T16:37:59.451Z,2.85
2023-02-01T16:40:26.203Z,3.28
2023-02-01T16:42:56.175Z,2.88
2023-02-01T16:45:23.872Z,2.60
2023-02-01T16:47:53.686Z,2.35
2023-02-01T16:50:24.407Z,2.70
2023-02-01T16:52:52.349Z,3.55
2023-02-01T16:55:22.698Z,2.78
2023-02-01T16:57:49.767Z,3.10
2023-02-01T17:00:24.616Z,2.53
2023-02-01T17:02:52.611Z,2.85
2023-02-01T17:05:19.327Z,3.28
2023-02-01T17:07:46.551Z,2.83
2023-02-01T17:10:34.664Z,3.15
2023-02-01T17:13:02.757Z,2.70
2023-02-01T17:15:35.452Z,2.88
2023-02-01T17:18:02.879Z,3.20
2023-02-01T17:20:33.143Z,2.50
2023-02-01T17:23:00.500Z,2.85
2023-02-01T17:25:28.807Z,2.95
2023-02-01T17:27:55.977Z,2.85
2023-02-01T17:30:23.245Z,3.33
2023-02-01T17:32:50.359Z,2.90
2023-02-01T17:35:23.172Z,2.75
2023-02-01T17:37:51.013Z,2.63
2023-02-01T17:40:18.170Z,2.42
2023-02-01T17:42:45.319Z,3.10
2023-02-01T17:45:27.465Z,3.00
2023-02-01T17:47:54.167Z,3.17
2023-02-01T17:50:20.844Z,3.13
2023-02-01T17:52:47.563Z,3.17
2023-02-01T17:55:19.710Z,2.40
2023-02-01T17:57:48.088Z,2.58
2023-02-01T18:00:15.784Z,2.70
2023-02-01T18:02:43.002Z,2.38
2023-02-01T18:05:18.679Z,2.92
2023-02-01T18:07:45.423Z,2.80
2023-02-01T18:10:12.397Z,2.80
2023-02-01T18:12:39.765Z,2.90
2023-02-01T18:15:26.228Z,2.70
2023-02-01T18:17:53.111Z,3.03
2023-02-01T18:20:22.698Z,2.90
2023-02-01T18:22:50.385Z,2.70
2023-02-01T18:25:18.284Z,2.53
2023-02-01T18:27:45.151Z,3.10
2023-02-01T18:30:12.811Z,2.60
2023-02-01T18:32:40.317Z,2.95
2023-02-01T18:35:33.474Z,2.40
2023-02-01T18:38:00.220Z,3.50
2023-02-01T18:40:34.142Z,2.60
2023-02-01T18:43:01.037Z,3.60
2023-02-01T18:45:39.430Z,3.58
2023-02-01T18:48:07.729Z,2.75
2023-02-01T18:50:36.961Z,3.42
2023-02-01T18:53:05.537Z,2.70
2023-02-01T18:55:35.097Z,3.15
2023-02-01T18:58:03.865Z,2.55
2023-02-01T19:00:30.665Z,2.30
2023-02-01T19:02:57.488Z,2.80
2023-02-01T19:05:24.562Z,2.92
2023-02-01T19:07:51.449Z,2.63
2023-02-01T19:10:22.165Z,2.65
2023-02-01T19:12:50.558Z,2.30
2023-02-01T19:15:17.695Z,2.70
2023-02-01T19:17:50.205Z,2.55
2023-02-01T19:20:19.629Z,3.03
2023-02-01T19:22:47.310Z,2.28
2023-02-01T19:25:17.351Z,2.95
2023-02-01T19:27:44.075Z,2.55
2023-02-01T19:30:12.845Z,2.58
2023-02-01T19:32:40.359Z,2.30
2023-02-01T19:35:08.417Z,2.08
2023-02-01T19:37:35.341Z,2.15
2023-02-01T19:40:02.395Z,3.45
2023-02-01T19:42:29.991Z,2.85
2023-02-01T19:44:56.717Z,2.35
2023-02-01T19:47:23.407Z,3.63
2023-02-01T19:49:50.073Z,2.92
2023-02-01T19:52:17.530Z,3.22
2023-02-01T19:54:44.248Z,3.10
2023-02-01T19:57:10.947Z,2.60
2023-02-01T19:59:37.664Z,3.25
2023-02-01T20:02:03.518Z,2.90
2023-02-01T20:04:30.279Z,2.97
2023-02-01T20:06:57.192Z,3.10
2023-02-01T20:09:26.861Z,2.85
2023-02-01T20:11:54.162Z,2.95
2023-02-01T20:14:22.100Z,2.63
2023-02-01T20:16:48.782Z,3.10
2023-02-01T20:19:16.267Z,2.78
2023-02-01T20:21:43.026Z,3.08
2023-02-01T20:24:13.439Z,3.53
2023-02-01T20:26:41.280Z,2.50
2023-02-01T20:29:08.462Z,2.97
2023-02-01T20:31:35.320Z,2.97
2023-02-01T20:34:03.570Z,3.08
2023-02-01T20:36:31.346Z,3.08
2023-02-01T20:38:58.571Z,2.60
2023-02-01T20:41:26.457Z,2.65
2023-02-01T20:43:53.438Z,3.13
2023-02-01T20:46:20.767Z,2.92
2023-02-01T20:48:49.347Z,3.25
2023-02-01T20:51:17.986Z,3.15
2023-02-01T20:53:47.586Z,2.90
2023-02-01T20:56:15.724Z,3.17
2023-02-01T20:58:43.258Z,2.78
2023-02-01T21:01:10.300Z,2.85
2023-02-01T21:03:37.139Z,2.15
2023-02-01T21:06:05.128Z,3.33
2023-02-01T21:08:32.604Z,3.35
2023-02-01T21:11:00.791Z,2.83
2023-02-01T21:13:30.375Z,2.75
2023-02-01T21:15:57.629Z,2.65
2023-02-01T21:18:24.789Z,3.15
2023-02-01T21:20:51.710Z,3.08
2023-02-01T21:23:18.734Z,3.17
2023-02-01T21:25:45.972Z,2.88
2023-02-01T21:28:13.409Z,4.10
2023-02-01T21:30:40.334Z,3.10
2023-02-01T21:33:07.848Z,2.90
2023-02-01T21:35:34.575Z,3.65
2023-02-01T21:38:01.266Z,3.28
2023-02-01T21:40:27.954Z,3.28
2023-02-01T21:42:54.972Z,2.78
2023-02-01T21:45:21.671Z,3.05
2023-02-01T21:47:49.630Z,3.05
2023-02-01T21:50:18.873Z,3.63
2023-02-01T21:52:46.604Z,3.70
2023-02-01T21:55:14.252Z,3.72
2023-02-01T21:57:41.495Z,2.88
2023-02-01T22:00:08.853Z,3.08
2023-02-01T22:02:36.062Z,3.15
2023-02-01T22:05:05.184Z,3.78
2023-02-01T22:07:33.301Z,3.13
2023-02-01T22:10:01.008Z,3.90
2023-02-01T22:12:27.796Z,3.60
2023-02-01T22:14:54.569Z,3.47
2023-02-01T22:17:21.383Z,3.53
2023-02-01T22:19:48.073Z,4.03
2023-02-01T22:22:14.774Z,3.83
2023-02-01T22:24:41.624Z,3.20
2023-02-01T22:27:14.115Z,3.58
2023-02-01T22:29:42.516Z,3.38
2023-02-01T22:32:09.761Z,2.88
2023-02-01T22:34:36.441Z,2.47
2023-02-01T22:37:03.435Z,2.70
2023-02-01T22:39:30.333Z,3.15
2023-02-01T22:41:57.089Z,2.90
2023-02-01T22:44:23.832Z,2.83
2023-02-01T22:46:50.694Z,2.53
2023-02-01T22:49:17.487Z,3.85
2023-02-01T22:51:44.248Z,3.33
2023-02-01T22:54:17.182Z,3.20
2023-02-01T22:56:43.944Z,2.97
2023-02-01T22:59:13.105Z,3.17
2023-02-01T23:01:40.381Z,3.25
2023-02-01T23:04:10.556Z,2.95
2023-02-01T23:06:37.236Z,2.72
2023-02-01T23:09:25.121Z,2.80
2023-02-01T23:11:52.923Z,2.72
2023-02-01T23:14:20.052Z,2.80
2023-02-01T23:16:48.977Z,3.45
2023-02-01T23:19:15.877Z,3.28
2023-02-01T23:21:42.786Z,3.67
2023-02-01T23:24:10.757Z,3.55
2023-02-01T23:26:37.979Z,3.10
2023-02-01T23:29:04.856Z,3.25
2023-02-01T23:31:33.856Z,2.90
2023-02-01T23:34:02.184Z,3.38
2023-02-01T23:36:29.793Z,3.22
2023-02-01T23:38:57.383Z,3.00
2023-02-01T23:41:24.464Z,3.33
2023-02-01T23:44:01.035Z,3.58
2023-02-01T23:46:39.377Z,3.45
2023-02-01T23:49:07.718Z,3.00
2023-02-01T23:51:34.776Z,3.33
2023-02-01T23:54:01.996Z,3.10
2023-02-01T23:56:34.122Z,3.45
2023-02-01T23:59:02.691Z,3.90
